sensor_id;sensor_type;location;lat;lon;timestamp;temperature;humidity
21830;DHT22;11077;50.264;6.798;2024-03-23T00:54:18;6.90;99.90
21830;DHT22;11077;50.264;6.798;2024-03-23T00:56:45;6.90;99.90
21830;DHT22;11077;50.264;6.798;2024-03-23T00:59:11;6.80;99.90
21830;DHT22;11077;50.264;6.798;2024-03-23T01:01:39;6.70;99.90
21830;DHT22;11077;50.264;6.798;2024-03-23T01:04:05;6.70;99.90
21830;DHT22;11077;50.264;6.798;2024-03-23T01:06:34;6.70;99.90
21830;DHT22;11077;50.264;6.798;2024-03-23T01:09:00;6.70;99.90
21830;DHT22;11077;50.264;6.798;2024-03-23T01:11:28;6.70;99.90
21830;DHT22;11077;50.264;6.798;2024-03-23T01:13:54;6.70;99.90
21830;DHT22;11077;50.264;6.798;2024-03-23T01:16:22;6.60;99.90
21830;DHT22;11077;50.264;6.798;2024-03-23T01:18:48;6.50;99.90
21830;DHT22;11077;50.264;6.798;2024-03-23T01:21:15;6.40;99.90
21830;DHT22;11077;50.264;6.798;2024-03-23T01:23:43;6.30;99.90
21830;DHT22;11077;50.264;6.798;2024-03-23T01:26:10;6.20;99.90
21830;DHT22;11077;50.264;6.798;2024-03-23T01:28:37;6.10;99.90
21830;DHT22;11077;50.264;6.798;2024-03-23T01:31:04;6.00;99.90
21830;DHT22;11077;50.264;6.798;2024-03-23T01:33:30;6.00;99.90
21830;DHT22;11077;50.264;6.798;2024-03-23T01:35:57;5.90;99.90
21830;DHT22;11077;50.264;6.798;2024-03-23T01:38:24;5.80;99.90
21830;DHT22;11077;50.264;6.798;2024-03-23T01:40:57;5.80;99.90
21830;DHT22;11077;50.264;6.798;2024-03-23T01:43:24;5.80;99.90
21830;DHT22;11077;50.264;6.798;2024-03-23T01:45:52;5.80;99.90
21830;DHT22;11077;50.264;6.798;2024-03-23T01:48:22;5.80;99.90
21830;DHT22;11077;50.264;6.798;2024-03-23T01:50:50;5.80;99.90
21830;DHT22;11077;50.264;6.798;2024-03-23T01:53:16;5.70;99.90
21830;DHT22;11077;50.264;6.798;2024-03-23T01:55:47;5.70;99.90
21830;DHT22;11077;50.264;6.798;2024-03-23T01:58:15;5.60;99.90
21830;DHT22;11077;50.264;6.798;2024-03-23T02:00:42;5.60;99.90
21830;DHT22;11077;50.264;6.798;2024-03-23T02:03:22;5.50;99.90
21830;DHT22;11077;50.264;6.798;2024-03-23T02:05:50;5.50;99.90
21830;DHT22;11077;50.264;6.798;2024-03-23T02:08:17;5.50;99.90
21830;DHT22;11077;50.264;6.798;2024-03-23T02:10:45;5.40;99.90
21830;DHT22;11077;50.264;6.798;2024-03-23T02:13:11;5.40;99.90
21830;DHT22;11077;50.264;6.798;2024-03-23T02:15:40;5.30;99.90
21830;DHT22;11077;50.264;6.798;2024-03-23T02:18:07;5.20;99.90
21830;DHT22;11077;50.264;6.798;2024-03-23T02:20:35;5.20;99.90
21830;DHT22;11077;50.264;6.798;2024-03-23T02:23:02;5.20;99.90
21830;DHT22;11077;50.264;6.798;2024-03-23T02:25:31;5.20;99.90
21830;DHT22;11077;50.264;6.798;2024-03-23T02:27:58;5.10;99.90
21830;DHT22;11077;50.264;6.798;2024-03-23T02:30:25;5.10;99.90
21830;DHT22;11077;50.264;6.798;2024-03-23T02:32:52;5.10;99.90
21830;DHT22;11077;50.264;6.798;2024-03-23T02:35:19;5.10;99.90
21830;DHT22;11077;50.264;6.798;2024-03-23T02:37:46;5.00;99.90
21830;DHT22;11077;50.264;6.798;2024-03-23T02:40:15;5.00;99.90
21830;DHT22;11077;50.264;6.798;2024-03-23T02:42:41;4.90;99.90
21830;DHT22;11077;50.264;6.798;2024-03-23T02:45:09;4.90;99.90
21830;DHT22;11077;50.264;6.798;2024-03-23T02:47:35;4.90;99.90
21830;DHT22;11077;50.264;6.798;2024-03-23T02:50:02;4.90;99.90
21830;DHT22;11077;50.264;6.798;2024-03-23T02:52:30;4.80;99.90
21830;DHT22;11077;50.264;6.798;2024-03-23T02:55:00;4.80;99.90
21830;DHT22;11077;50.264;6.798;2024-03-23T02:57:29;4.80;99.90
21830;DHT22;11077;50.264;6.798;2024-03-23T02:59:56;4.70;99.90
21830;DHT22;11077;50.264;6.798;2024-03-23T03:02:22;4.70;99.90
21830;DHT22;11077;50.264;6.798;2024-03-23T03:04:50;4.60;99.90
21830;DHT22;11077;50.264;6.798;2024-03-23T03:07:16;4.50;99.90
21830;DHT22;11077;50.264;6.798;2024-03-23T03:09:43;4.50;99.90
21830;DHT22;11077;50.264;6.798;2024-03-23T03:12:09;4.50;99.90
21830;DHT22;11077;50.264;6.798;2024-03-23T03:14:38;4.40;99.90
21830;DHT22;11077;50.264;6.798;2024-03-23T03:17:04;4.40;99.90
21830;DHT22;11077;50.264;6.798;2024-03-23T03:19:32;4.30;99.90
21830;DHT22;11077;50.264;6.798;2024-03-23T03:21:58;4.30;99.90
21830;DHT22;11077;50.264;6.798;2024-03-23T03:24:25;4.20;99.90
21830;DHT22;11077;50.264;6.798;2024-03-23T03:26:51;4.20;99.90
21830;DHT22;11077;50.264;6.798;2024-03-23T03:29:19;4.20;99.90
21830;DHT22;11077;50.264;6.798;2024-03-23T03:31:47;4.10;99.90
21830;DHT22;11077;50.264;6.798;2024-03-23T03:34:15;4.10;99.90
21830;DHT22;11077;50.264;6.798;2024-03-23T03:36:42;4.10;99.90
21830;DHT22;11077;50.264;6.798;2024-03-23T03:39:09;4.10;99.90
21830;DHT22;11077;50.264;6.798;2024-03-23T03:41:35;4.10;99.90
21830;DHT22;11077;50.264;6.798;2024-03-23T03:44:03;4.10;99.90
21830;DHT22;11077;50.264;6.798;2024-03-23T03:46:29;4.00;99.90
21830;DHT22;11077;50.264;6.798;2024-03-23T03:48:58;4.00;99.90
21830;DHT22;11077;50.264;6.798;2024-03-23T03:51:24;4.00;99.90
21830;DHT22;11077;50.264;6.798;2024-03-23T03:53:51;3.90;99.90
21830;DHT22;11077;50.264;6.798;2024-03-23T03:56:18;3.90;99.90
21830;DHT22;11077;50.264;6.798;2024-03-23T03:58:45;3.80;99.90
21830;DHT22;11077;50.264;6.798;2024-03-23T04:01:11;3.80;99.90
21830;DHT22;11077;50.264;6.798;2024-03-23T04:03:38;3.80;99.90
21830;DHT22;11077;50.264;6.798;2024-03-23T04:06:10;3.80;99.90
21830;DHT22;11077;50.264;6.798;2024-03-23T04:08:38;3.70;99.90
21830;DHT22;11077;50.264;6.798;2024-03-23T04:11:04;3.60;99.90
21830;DHT22;11077;50.264;6.798;2024-03-23T04:13:31;3.70;99.90
21830;DHT22;11077;50.264;6.798;2024-03-23T04:15:58;3.70;99.90
21830;DHT22;11077;50.264;6.798;2024-03-23T04:18:25;3.70;99.90
21830;DHT22;11077;50.264;6.798;2024-03-23T04:20:51;3.60;99.90
21830;DHT22;11077;50.264;6.798;2024-03-23T04:23:20;3.60;99.90
21830;DHT22;11077;50.264;6.798;2024-03-23T04:25:47;3.60;99.90
21830;DHT22;11077;50.264;6.798;2024-03-23T04:28:14;3.60;99.90
21830;DHT22;11077;50.264;6.798;2024-03-23T04:30:40;3.60;99.90
21830;DHT22;11077;50.264;6.798;2024-03-23T04:33:07;3.50;99.90
21830;DHT22;11077;50.264;6.798;2024-03-23T04:35:34;3.50;99.90
21830;DHT22;11077;50.264;6.798;2024-03-23T04:38:02;3.50;99.90
21830;DHT22;11077;50.264;6.798;2024-03-23T04:40:31;3.40;99.90
21830;DHT22;11077;50.264;6.798;2024-03-23T04:42:58;3.40;99.90
21830;DHT22;11077;50.264;6.798;2024-03-23T04:45:26;3.40;99.90
21830;DHT22;11077;50.264;6.798;2024-03-23T04:47:53;3.30;99.90
21830;DHT22;11077;50.264;6.798;2024-03-23T04:50:21;3.30;99.90
21830;DHT22;11077;50.264;6.798;2024-03-23T04:52:48;3.30;99.90
21830;DHT22;11077;50.264;6.798;2024-03-23T04:55:15;3.30;99.90
21830;DHT22;11077;50.264;6.798;2024-03-23T04:57:44;3.20;99.90
21830;DHT22;11077;50.264;6.798;2024-03-23T05:00:13;3.20;99.90
21830;DHT22;11077;50.264;6.798;2024-03-23T05:02:44;3.20;99.90
21830;DHT22;11077;50.264;6.798;2024-03-23T05:05:12;3.20;99.90
21830;DHT22;11077;50.264;6.798;2024-03-23T05:07:38;3.20;99.90
21830;DHT22;11077;50.264;6.798;2024-03-23T05:10:08;3.10;99.90
21830;DHT22;11077;50.264;6.798;2024-03-23T05:12:36;3.10;99.90
21830;DHT22;11077;50.264;6.798;2024-03-23T05:15:06;3.10;99.90
21830;DHT22;11077;50.264;6.798;2024-03-23T05:17:33;3.10;99.90
21830;DHT22;11077;50.264;6.798;2024-03-23T05:20:02;3.20;99.90
21830;DHT22;11077;50.264;6.798;2024-03-23T05:22:33;3.20;99.90
21830;DHT22;11077;50.264;6.798;2024-03-23T05:25:01;3.10;99.90
21830;DHT22;11077;50.264;6.798;2024-03-23T05:27:31;3.10;99.90
21830;DHT22;11077;50.264;6.798;2024-03-23T05:29:58;3.10;99.90
21830;DHT22;11077;50.264;6.798;2024-03-23T05:32:26;3.10;99.90
21830;DHT22;11077;50.264;6.798;2024-03-23T05:34:54;3.10;99.90
21830;DHT22;11077;50.264;6.798;2024-03-23T05:37:22;3.10;99.90
21830;DHT22;11077;50.264;6.798;2024-03-23T05:39:50;3.10;99.90
21830;DHT22;11077;50.264;6.798;2024-03-23T05:42:16;3.10;99.90
21830;DHT22;11077;50.264;6.798;2024-03-23T05:44:44;3.10;99.90
21830;DHT22;11077;50.264;6.798;2024-03-23T05:47:11;3.10;99.90
21830;DHT22;11077;50.264;6.798;2024-03-23T05:49:42;3.10;99.90
21830;DHT22;11077;50.264;6.798;2024-03-23T05:52:09;3.10;99.90
21830;DHT22;11077;50.264;6.798;2024-03-23T05:54:37;3.10;99.90
21830;DHT22;11077;50.264;6.798;2024-03-23T05:57:03;3.00;99.90
21830;DHT22;11077;50.264;6.798;2024-03-23T05:59:33;3.00;99.90
21830;DHT22;11077;50.264;6.798;2024-03-23T06:02:00;3.00;99.90
21830;DHT22;11077;50.264;6.798;2024-03-23T06:04:28;3.00;99.90
21830;DHT22;11077;50.264;6.798;2024-03-23T06:06:56;3.00;99.90
21830;DHT22;11077;50.264;6.798;2024-03-23T06:09:23;3.00;99.90
21830;DHT22;11077;50.264;6.798;2024-03-23T06:11:51;3.00;99.90
21830;DHT22;11077;50.264;6.798;2024-03-23T06:14:17;3.10;99.90
21830;DHT22;11077;50.264;6.798;2024-03-23T06:16:45;3.10;99.90
21830;DHT22;11077;50.264;6.798;2024-03-23T06:19:11;3.10;99.90
21830;DHT22;11077;50.264;6.798;2024-03-23T06:21:43;3.20;99.90
21830;DHT22;11077;50.264;6.798;2024-03-23T06:24:11;3.20;99.90
21830;DHT22;11077;50.264;6.798;2024-03-23T06:26:38;3.30;99.90
21830;DHT22;11077;50.264;6.798;2024-03-23T06:29:05;3.30;99.90
21830;DHT22;11077;50.264;6.798;2024-03-23T06:31:32;3.30;99.90
21830;DHT22;11077;50.264;6.798;2024-03-23T06:33:59;3.30;99.90
21830;DHT22;11077;50.264;6.798;2024-03-23T06:36:27;3.30;99.90
21830;DHT22;11077;50.264;6.798;2024-03-23T06:38:54;3.40;99.90
21830;DHT22;11077;50.264;6.798;2024-03-23T06:41:23;3.40;99.90
21830;DHT22;11077;50.264;6.798;2024-03-23T06:43:50;3.40;99.90
21830;DHT22;11077;50.264;6.798;2024-03-23T06:46:18;3.40;99.90
21830;DHT22;11077;50.264;6.798;2024-03-23T06:48:45;3.50;99.90
21830;DHT22;11077;50.264;6.798;2024-03-23T06:51:12;3.40;99.90
21830;DHT22;11077;50.264;6.798;2024-03-23T06:53:39;3.40;99.90
21830;DHT22;11077;50.264;6.798;2024-03-23T06:56:06;3.40;99.90
21830;DHT22;11077;50.264;6.798;2024-03-23T06:58:34;3.40;99.90
21830;DHT22;11077;50.264;6.798;2024-03-23T07:01:02;3.40;99.90
21830;DHT22;11077;50.264;6.798;2024-03-23T07:03:32;3.40;99.90
21830;DHT22;11077;50.264;6.798;2024-03-23T07:06:09;3.40;99.90
21830;DHT22;11077;50.264;6.798;2024-03-23T07:08:36;3.40;99.90
21830;DHT22;11077;50.264;6.798;2024-03-23T07:11:04;3.40;99.90
21830;DHT22;11077;50.264;6.798;2024-03-23T07:13:31;3.40;99.90
21830;DHT22;11077;50.264;6.798;2024-03-23T07:16:00;3.40;99.90
21830;DHT22;11077;50.264;6.798;2024-03-23T07:18:27;3.40;99.90
21830;DHT22;11077;50.264;6.798;2024-03-23T07:20:55;3.40;99.90
21830;DHT22;11077;50.264;6.798;2024-03-23T07:23:22;3.60;99.90
21830;DHT22;11077;50.264;6.798;2024-03-23T07:25:59;3.50;99.90
21830;DHT22;11077;50.264;6.798;2024-03-23T07:28:26;3.50;99.90
21830;DHT22;11077;50.264;6.798;2024-03-23T07:31:09;3.60;99.90
21830;DHT22;11077;50.264;6.798;2024-03-23T07:33:42;3.70;99.90
21830;DHT22;11077;50.264;6.798;2024-03-23T07:36:10;3.80;99.90
21830;DHT22;11077;50.264;6.798;2024-03-23T07:38:36;3.80;99.90
21830;DHT22;11077;50.264;6.798;2024-03-23T07:41:04;3.90;99.90
21830;DHT22;11077;50.264;6.798;2024-03-23T07:43:31;4.00;99.90
21830;DHT22;11077;50.264;6.798;2024-03-23T07:45:59;4.10;99.90
21830;DHT22;11077;50.264;6.798;2024-03-23T07:48:28;4.20;99.90
21830;DHT22;11077;50.264;6.798;2024-03-23T07:51:00;4.30;99.90
21830;DHT22;11077;50.264;6.798;2024-03-23T07:53:26;4.30;99.90
21830;DHT22;11077;50.264;6.798;2024-03-23T07:55:58;4.40;99.90
21830;DHT22;11077;50.264;6.798;2024-03-23T07:58:24;4.50;99.90
21830;DHT22;11077;50.264;6.798;2024-03-23T08:00:52;4.50;99.90
21830;DHT22;11077;50.264;6.798;2024-03-23T08:03:18;4.60;99.90
21830;DHT22;11077;50.264;6.798;2024-03-23T08:05:47;4.70;99.90
21830;DHT22;11077;50.264;6.798;2024-03-23T08:08:14;4.70;99.90
21830;DHT22;11077;50.264;6.798;2024-03-23T08:10:49;4.80;99.90
21830;DHT22;11077;50.264;6.798;2024-03-23T08:13:15;4.90;99.90
21830;DHT22;11077;50.264;6.798;2024-03-23T08:15:43;4.90;99.90
21830;DHT22;11077;50.264;6.798;2024-03-23T08:18:11;5.00;99.90
21830;DHT22;11077;50.264;6.798;2024-03-23T08:20:39;4.90;99.90
21830;DHT22;11077;50.264;6.798;2024-03-23T08:23:08;4.70;99.90
21830;DHT22;11077;50.264;6.798;2024-03-23T08:25:38;4.30;99.90
21830;DHT22;11077;50.264;6.798;2024-03-23T08:28:05;3.80;99.90
21830;DHT22;11077;50.264;6.798;2024-03-23T08:30:35;3.50;99.90
21830;DHT22;11077;50.264;6.798;2024-03-23T08:33:01;3.30;99.90
21830;DHT22;11077;50.264;6.798;2024-03-23T08:35:28;3.30;99.90
21830;DHT22;11077;50.264;6.798;2024-03-23T08:37:55;3.20;99.90
21830;DHT22;11077;50.264;6.798;2024-03-23T08:40:24;3.20;99.90
21830;DHT22;11077;50.264;6.798;2024-03-23T08:42:51;3.20;99.90
21830;DHT22;11077;50.264;6.798;2024-03-23T08:45:18;3.20;99.90
21830;DHT22;11077;50.264;6.798;2024-03-23T08:47:44;3.20;99.90
21830;DHT22;11077;50.264;6.798;2024-03-23T08:50:12;3.20;99.90
21830;DHT22;11077;50.264;6.798;2024-03-23T08:52:38;3.20;99.90
21830;DHT22;11077;50.264;6.798;2024-03-23T08:55:06;3.20;99.90
21830;DHT22;11077;50.264;6.798;2024-03-23T08:57:34;3.30;99.90
21830;DHT22;11077;50.264;6.798;2024-03-23T09:00:02;3.40;99.90
21830;DHT22;11077;50.264;6.798;2024-03-23T09:02:29;3.60;99.90
21830;DHT22;11077;50.264;6.798;2024-03-23T09:04:56;3.80;99.90
21830;DHT22;11077;50.264;6.798;2024-03-23T09:07:25;4.00;99.90
21830;DHT22;11077;50.264;6.798;2024-03-23T09:09:53;4.20;99.90
21830;DHT22;11077;50.264;6.798;2024-03-23T09:12:19;4.40;99.90
21830;DHT22;11077;50.264;6.798;2024-03-23T09:14:48;4.70;99.90
21830;DHT22;11077;50.264;6.798;2024-03-23T09:17:15;4.90;99.90
21830;DHT22;11077;50.264;6.798;2024-03-23T09:19:44;5.10;99.90
21830;DHT22;11077;50.264;6.798;2024-03-23T09:22:10;5.20;99.90
21830;DHT22;11077;50.264;6.798;2024-03-23T09:24:38;5.30;99.90
21830;DHT22;11077;50.264;6.798;2024-03-23T09:27:05;5.50;99.90
21830;DHT22;11077;50.264;6.798;2024-03-23T09:29:32;5.70;99.90
21830;DHT22;11077;50.264;6.798;2024-03-23T09:32:00;5.80;99.90
21830;DHT22;11077;50.264;6.798;2024-03-23T09:34:27;5.90;99.90
21830;DHT22;11077;50.264;6.798;2024-03-23T09:36:53;5.80;99.90
21830;DHT22;11077;50.264;6.798;2024-03-23T09:39:21;5.80;99.90
21830;DHT22;11077;50.264;6.798;2024-03-23T09:41:47;5.90;99.90
21830;DHT22;11077;50.264;6.798;2024-03-23T09:44:14;6.10;99.90
21830;DHT22;11077;50.264;6.798;2024-03-23T09:46:41;6.30;99.90
21830;DHT22;11077;50.264;6.798;2024-03-23T09:49:09;6.20;99.90
21830;DHT22;11077;50.264;6.798;2024-03-23T09:51:36;6.30;99.90
21830;DHT22;11077;50.264;6.798;2024-03-23T09:54:03;6.40;99.90
21830;DHT22;11077;50.264;6.798;2024-03-23T09:56:30;6.50;99.90
21830;DHT22;11077;50.264;6.798;2024-03-23T09:59:01;6.60;99.90
21830;DHT22;11077;50.264;6.798;2024-03-23T10:01:29;6.70;99.90
21830;DHT22;11077;50.264;6.798;2024-03-23T10:03:57;6.80;99.90
21830;DHT22;11077;50.264;6.798;2024-03-23T10:06:25;6.80;99.90
21830;DHT22;11077;50.264;6.798;2024-03-23T10:08:53;7.10;99.90
21830;DHT22;11077;50.264;6.798;2024-03-23T10:11:21;7.00;99.90
21830;DHT22;11077;50.264;6.798;2024-03-23T10:13:52;6.90;99.90
21830;DHT22;11077;50.264;6.798;2024-03-23T10:16:23;6.80;99.90
21830;DHT22;11077;50.264;6.798;2024-03-23T10:18:53;6.70;99.90
21830;DHT22;11077;50.264;6.798;2024-03-23T10:21:23;6.60;99.90
21830;DHT22;11077;50.264;6.798;2024-03-23T10:23:54;6.70;99.90
21830;DHT22;11077;50.264;6.798;2024-03-23T10:26:24;6.80;99.90
21830;DHT22;11077;50.264;6.798;2024-03-23T10:28:52;6.70;99.90
21830;DHT22;11077;50.264;6.798;2024-03-23T10:31:20;6.80;99.90
21830;DHT22;11077;50.264;6.798;2024-03-23T10:33:47;6.80;99.90
21830;DHT22;11077;50.264;6.798;2024-03-23T10:36:14;6.70;99.90
21830;DHT22;11077;50.264;6.798;2024-03-23T10:38:42;6.60;99.90
21830;DHT22;11077;50.264;6.798;2024-03-23T10:41:11;6.70;99.90
21830;DHT22;11077;50.264;6.798;2024-03-23T10:43:38;6.80;99.90
21830;DHT22;11077;50.264;6.798;2024-03-23T10:46:05;7.00;99.90
21830;DHT22;11077;50.264;6.798;2024-03-23T10:48:32;7.20;99.90
21830;DHT22;11077;50.264;6.798;2024-03-23T10:51:00;7.30;99.90
21830;DHT22;11077;50.264;6.798;2024-03-23T10:53:27;7.20;99.90
21830;DHT22;11077;50.264;6.798;2024-03-23T10:55:56;7.10;99.90
21830;DHT22;11077;50.264;6.798;2024-03-23T10:58:28;7.00;99.90
21830;DHT22;11077;50.264;6.798;2024-03-23T11:00:55;6.80;99.90
21830;DHT22;11077;50.264;6.798;2024-03-23T11:03:35;6.80;99.90
21830;DHT22;11077;50.264;6.798;2024-03-23T11:06:04;6.60;99.90
21830;DHT22;11077;50.264;6.798;2024-03-23T11:08:32;6.50;99.90
21830;DHT22;11077;50.264;6.798;2024-03-23T11:11:17;6.10;99.90
21830;DHT22;11077;50.264;6.798;2024-03-23T11:13:47;5.50;99.90
21830;DHT22;11077;50.264;6.798;2024-03-23T11:16:15;5.10;99.90
21830;DHT22;11077;50.264;6.798;2024-03-23T11:18:42;4.80;99.90
21830;DHT22;11077;50.264;6.798;2024-03-23T11:21:11;4.60;99.90
21830;DHT22;11077;50.264;6.798;2024-03-23T11:24:14;4.40;99.90
21830;DHT22;11077;50.264;6.798;2024-03-23T11:26:42;4.30;99.90
21830;DHT22;11077;50.264;6.798;2024-03-23T11:29:13;4.20;99.90
21830;DHT22;11077;50.264;6.798;2024-03-23T11:31:46;4.10;99.90
21830;DHT22;11077;50.264;6.798;2024-03-23T11:34:12;4.10;99.90
21830;DHT22;11077;50.264;6.798;2024-03-23T11:36:39;4.30;99.90
21830;DHT22;11077;50.264;6.798;2024-03-23T11:39:12;4.50;99.90
21830;DHT22;11077;50.264;6.798;2024-03-23T11:41:48;4.80;99.90
21830;DHT22;11077;50.264;6.798;2024-03-23T11:44:17;5.10;99.90
21830;DHT22;11077;50.264;6.798;2024-03-23T11:46:45;5.40;99.90
21830;DHT22;11077;50.264;6.798;2024-03-23T11:49:25;5.60;99.90
21830;DHT22;11077;50.264;6.798;2024-03-23T11:51:54;5.70;99.90
21830;DHT22;11077;50.264;6.798;2024-03-23T11:54:21;5.80;99.90
21830;DHT22;11077;50.264;6.798;2024-03-23T11:56:54;6.00;99.90
21830;DHT22;11077;50.264;6.798;2024-03-23T11:59:32;6.10;99.90
21830;DHT22;11077;50.264;6.798;2024-03-23T12:01:59;6.30;99.90
21830;DHT22;11077;50.264;6.798;2024-03-23T12:04:27;6.40;99.90
21830;DHT22;11077;50.264;6.798;2024-03-23T12:07:10;6.50;99.90
21830;DHT22;11077;50.264;6.798;2024-03-23T12:09:36;6.40;99.90
21830;DHT22;11077;50.264;6.798;2024-03-23T12:12:13;6.30;99.90
21830;DHT22;11077;50.264;6.798;2024-03-23T12:14:42;5.60;99.90
21830;DHT22;11077;50.264;6.798;2024-03-23T12:17:13;5.20;99.90
21830;DHT22;11077;50.264;6.798;2024-03-23T12:19:40;4.90;99.90
21830;DHT22;11077;50.264;6.798;2024-03-23T12:22:08;4.80;99.90
21830;DHT22;11077;50.264;6.798;2024-03-23T12:24:34;4.80;99.90
21830;DHT22;11077;50.264;6.798;2024-03-23T12:27:02;5.00;99.90
21830;DHT22;11077;50.264;6.798;2024-03-23T12:29:30;5.10;99.90
21830;DHT22;11077;50.264;6.798;2024-03-23T12:32:04;5.30;99.90
21830;DHT22;11077;50.264;6.798;2024-03-23T12:34:31;5.40;99.90
21830;DHT22;11077;50.264;6.798;2024-03-23T12:36:58;5.60;99.90
21830;DHT22;11077;50.264;6.798;2024-03-23T12:39:24;5.80;99.90
21830;DHT22;11077;50.264;6.798;2024-03-23T12:41:51;5.80;99.90
21830;DHT22;11077;50.264;6.798;2024-03-23T12:44:18;5.80;99.90
21830;DHT22;11077;50.264;6.798;2024-03-23T12:46:47;5.70;99.90
21830;DHT22;11077;50.264;6.798;2024-03-23T12:49:14;5.70;99.90
21830;DHT22;11077;50.264;6.798;2024-03-23T12:51:48;5.70;99.90
21830;DHT22;11077;50.264;6.798;2024-03-23T12:54:14;5.70;99.90
21830;DHT22;11077;50.264;6.798;2024-03-23T12:56:41;5.60;99.90
21830;DHT22;11077;50.264;6.798;2024-03-23T12:59:08;5.50;99.90
21830;DHT22;11077;50.264;6.798;2024-03-23T13:01:35;5.40;99.90
21830;DHT22;11077;50.264;6.798;2024-03-23T13:04:02;5.30;99.90
21830;DHT22;11077;50.264;6.798;2024-03-23T13:06:30;5.20;99.90
21830;DHT22;11077;50.264;6.798;2024-03-23T13:09:00;5.10;99.90
21830;DHT22;11077;50.264;6.798;2024-03-23T13:11:27;5.00;99.90
21830;DHT22;11077;50.264;6.798;2024-03-23T13:13:53;4.90;99.90
21830;DHT22;11077;50.264;6.798;2024-03-23T13:16:20;4.90;99.90
21830;DHT22;11077;50.264;6.798;2024-03-23T13:18:47;5.00;99.90
21830;DHT22;11077;50.264;6.798;2024-03-23T13:21:14;5.00;99.90
21830;DHT22;11077;50.264;6.798;2024-03-23T13:23:42;4.80;99.90
21830;DHT22;11077;50.264;6.798;2024-03-23T13:26:11;4.70;99.90
21830;DHT22;11077;50.264;6.798;2024-03-23T13:28:38;4.40;99.90
21830;DHT22;11077;50.264;6.798;2024-03-23T13:31:05;4.30;99.90
21830;DHT22;11077;50.264;6.798;2024-03-23T13:33:32;4.30;99.90
21830;DHT22;11077;50.264;6.798;2024-03-23T13:35:59;4.40;99.90
21830;DHT22;11077;50.264;6.798;2024-03-23T13:38:26;4.50;99.90
21830;DHT22;11077;50.264;6.798;2024-03-23T13:40:55;4.60;99.90
21830;DHT22;11077;50.264;6.798;2024-03-23T13:43:23;4.70;99.90
21830;DHT22;11077;50.264;6.798;2024-03-23T13:45:53;4.60;99.90
21830;DHT22;11077;50.264;6.798;2024-03-23T13:48:20;4.70;99.90
21830;DHT22;11077;50.264;6.798;2024-03-23T13:50:51;4.70;99.90
21830;DHT22;11077;50.264;6.798;2024-03-23T13:53:22;4.70;99.90
21830;DHT22;11077;50.264;6.798;2024-03-23T13:55:50;4.70;99.90
21830;DHT22;11077;50.264;6.798;2024-03-23T13:58:17;4.70;99.90
21830;DHT22;11077;50.264;6.798;2024-03-23T14:00:45;4.30;99.90
21830;DHT22;11077;50.264;6.798;2024-03-23T14:03:12;4.00;99.90
21830;DHT22;11077;50.264;6.798;2024-03-23T14:05:40;3.70;99.90
21830;DHT22;11077;50.264;6.798;2024-03-23T14:08:07;3.50;99.90
21830;DHT22;11077;50.264;6.798;2024-03-23T14:10:34;3.50;99.90
21830;DHT22;11077;50.264;6.798;2024-03-23T14:13:01;3.60;99.90
21830;DHT22;11077;50.264;6.798;2024-03-23T14:15:30;3.70;99.90
21830;DHT22;11077;50.264;6.798;2024-03-23T14:17:57;3.90;99.90
21830;DHT22;11077;50.264;6.798;2024-03-23T14:20:24;4.10;99.90
21830;DHT22;11077;50.264;6.798;2024-03-23T14:22:51;4.30;99.90
21830;DHT22;11077;50.264;6.798;2024-03-23T14:25:19;4.30;99.90
21830;DHT22;11077;50.264;6.798;2024-03-23T14:27:46;4.40;99.90
21830;DHT22;11077;50.264;6.798;2024-03-23T14:30:14;4.40;99.90
21830;DHT22;11077;50.264;6.798;2024-03-23T14:32:41;4.50;99.90
21830;DHT22;11077;50.264;6.798;2024-03-23T14:35:09;4.50;99.90
21830;DHT22;11077;50.264;6.798;2024-03-23T14:37:36;4.50;99.90
21830;DHT22;11077;50.264;6.798;2024-03-23T14:40:05;4.50;99.90
21830;DHT22;11077;50.264;6.798;2024-03-23T14:42:34;4.50;99.90
21830;DHT22;11077;50.264;6.798;2024-03-23T14:45:01;4.50;99.90
21830;DHT22;11077;50.264;6.798;2024-03-23T14:47:29;4.50;99.90
21830;DHT22;11077;50.264;6.798;2024-03-23T14:49:58;4.50;99.90
21830;DHT22;11077;50.264;6.798;2024-03-23T14:52:24;4.60;99.90
21830;DHT22;11077;50.264;6.798;2024-03-23T14:54:52;4.60;99.90
21830;DHT22;11077;50.264;6.798;2024-03-23T14:57:18;4.70;99.90
21830;DHT22;11077;50.264;6.798;2024-03-23T14:59:45;4.80;99.90
21830;DHT22;11077;50.264;6.798;2024-03-23T15:02:12;5.00;99.90
21830;DHT22;11077;50.264;6.798;2024-03-23T15:04:39;5.10;99.90
21830;DHT22;11077;50.264;6.798;2024-03-23T15:07:09;5.20;99.90
21830;DHT22;11077;50.264;6.798;2024-03-23T15:09:36;5.10;99.90
21830;DHT22;11077;50.264;6.798;2024-03-23T15:12:03;5.00;99.90
21830;DHT22;11077;50.264;6.798;2024-03-23T15:14:30;4.90;99.90
21830;DHT22;11077;50.264;6.798;2024-03-23T15:16:57;4.90;99.90
21830;DHT22;11077;50.264;6.798;2024-03-23T15:19:24;4.50;99.90
21830;DHT22;11077;50.264;6.798;2024-03-23T15:21:51;4.00;99.90
21830;DHT22;11077;50.264;6.798;2024-03-23T15:24:19;3.50;99.90
21830;DHT22;11077;50.264;6.798;2024-03-23T15:26:47;3.10;99.90
21830;DHT22;11077;50.264;6.798;2024-03-23T15:29:15;2.90;99.90
21830;DHT22;11077;50.264;6.798;2024-03-23T15:31:43;2.80;99.90
21830;DHT22;11077;50.264;6.798;2024-03-23T15:34:09;2.70;99.90
21830;DHT22;11077;50.264;6.798;2024-03-23T15:36:37;2.70;99.90
21830;DHT22;11077;50.264;6.798;2024-03-23T15:39:04;2.60;99.90
21830;DHT22;11077;50.264;6.798;2024-03-23T15:41:33;2.60;99.90
21830;DHT22;11077;50.264;6.798;2024-03-23T15:44:01;2.60;99.90
21830;DHT22;11077;50.264;6.798;2024-03-23T15:46:28;2.50;99.90
21830;DHT22;11077;50.264;6.798;2024-03-23T15:48:55;2.50;99.90
21830;DHT22;11077;50.264;6.798;2024-03-23T15:51:22;2.50;99.90
21830;DHT22;11077;50.264;6.798;2024-03-23T15:53:49;2.50;99.90
21830;DHT22;11077;50.264;6.798;2024-03-23T15:56:18;2.60;99.90
21830;DHT22;11077;50.264;6.798;2024-03-23T15:58:46;2.60;99.90
21830;DHT22;11077;50.264;6.798;2024-03-23T16:01:17;2.60;99.90
21830;DHT22;11077;50.264;6.798;2024-03-23T16:03:47;2.60;99.90
21830;DHT22;11077;50.264;6.798;2024-03-23T16:06:14;2.60;99.90
21830;DHT22;11077;50.264;6.798;2024-03-23T16:08:40;2.60;99.90
21830;DHT22;11077;50.264;6.798;2024-03-23T16:11:09;2.50;99.90
21830;DHT22;11077;50.264;6.798;2024-03-23T16:13:36;2.40;99.90
21830;DHT22;11077;50.264;6.798;2024-03-23T16:16:05;2.40;99.90
21830;DHT22;11077;50.264;6.798;2024-03-23T16:18:33;2.30;99.90
21830;DHT22;11077;50.264;6.798;2024-03-23T16:21:02;2.20;99.90
21830;DHT22;11077;50.264;6.798;2024-03-23T16:23:29;2.20;99.90
21830;DHT22;11077;50.264;6.798;2024-03-23T16:25:58;2.20;99.90
21830;DHT22;11077;50.264;6.798;2024-03-23T16:28:28;2.20;99.90
21830;DHT22;11077;50.264;6.798;2024-03-23T16:30:56;2.10;99.90
21830;DHT22;11077;50.264;6.798;2024-03-23T16:33:24;2.10;99.90
21830;DHT22;11077;50.264;6.798;2024-03-23T16:35:56;2.00;99.90
21830;DHT22;11077;50.264;6.798;2024-03-23T16:38:23;1.90;99.90
21830;DHT22;11077;50.264;6.798;2024-03-23T16:40:58;1.90;99.90
21830;DHT22;11077;50.264;6.798;2024-03-23T16:43:28;1.90;99.90